Time;durP1;ratioP1;P1;durP2;ratioP2;P2;SDS_P1;SDS_P2;PMS_P1;PMS_P2;Temp;Humidity;BMP_temperature;BMP_pressure;BME280_temperature;BME280_humidity;BME280_pressure;Samples;Min_cycle;Max_cycle;Signal;HPM_P1;HPM_P2
2022/03/01 05:00:54;;;;;;;12.20;6.50;;;-0.30;99.90;;;;;;5701396;23;20792;-70
2022/03/01 05:03:21;;;;;;;14.30;6.68;;;-0.40;99.90;;;;;;4953006;28;20335;-69
2022/03/01 05:05:48;;;;;;;14.30;7.82;;;-0.30;99.90;;;;;;4957821;28;20205;-69
2022/03/01 05:08:15;;;;;;;9.95;6.90;;;-0.40;99.90;;;;;;4939569;28;20247;-69
2022/03/01 05:10:42;;;;;;;11.32;6.95;;;-0.40;99.90;;;;;;4954002;29;20327;-69
2022/03/01 05:13:08;;;;;;;10.15;6.15;;;-0.40;99.90;;;;;;4948019;28;20562;-69
2022/03/01 05:15:35;;;;;;;12.95;8.55;;;-0.40;99.90;;;;;;4955405;28;20209;-69
2022/03/01 05:18:03;;;;;;;10.15;7.55;;;-0.40;99.90;;;;;;4949592;28;20225;-69
2022/03/01 05:20:30;;;;;;;9.95;6.93;;;-0.40;99.90;;;;;;4953975;29;20328;-70
2022/03/01 05:22:57;;;;;;;10.02;7.13;;;-0.40;99.90;;;;;;4950770;28;20202;-69
2022/03/01 05:25:24;;;;;;;11.68;8.07;;;-0.40;99.90;;;;;;4951981;29;20581;-69
2022/03/01 05:27:52;;;;;;;10.45;6.97;;;-0.40;99.90;;;;;;4937138;28;20194;-69
2022/03/01 05:30:20;;;;;;;10.55;6.57;;;-0.40;99.90;;;;;;4946605;23;20234;-70
2022/03/01 05:32:50;;;;;;;7.13;6.45;;;-0.50;99.90;;;;;;4914135;29;20211;-70
2022/03/01 05:35:21;;;;;;;20.20;7.13;;;-0.50;99.90;;;;;;4902617;29;20219;-70
2022/03/01 05:37:49;;;;;;;9.65;6.10;;;-0.50;99.90;;;;;;4913318;29;20231;-70
2022/03/01 05:40:16;;;;;;;16.45;7.43;;;-0.50;99.90;;;;;;4926724;29;20383;-70
2022/03/01 05:42:43;;;;;;;10.98;7.57;;;-0.50;99.90;;;;;;4921307;29;20560;-70
2022/03/01 05:45:11;;;;;;;14.10;8.05;;;-0.50;99.90;;;;;;4928748;29;20250;-70
2022/03/01 05:47:38;;;;;;;11.23;7.97;;;-0.50;99.90;;;;;;4907109;29;20211;-70
2022/03/01 05:50:05;;;;;;;14.70;8.63;;;-0.50;99.90;;;;;;4918641;29;20237;-70
2022/03/01 05:52:33;;;;;;;13.02;8.57;;;-0.50;99.90;;;;;;4911465;29;20220;-70
2022/03/01 05:55:00;;;;;;;12.88;9.05;;;-0.50;99.90;;;;;;4916504;29;20667;-70
2022/03/01 05:57:28;;;;;;;14.40;8.75;;;-0.60;99.90;;;;;;4907999;29;20286;-70
2022/03/01 05:59:55;;;;;;;13.52;8.57;;;-0.50;99.90;;;;;;4915927;29;20313;-70
2022/03/01 06:02:22;;;;;;;17.13;8.57;;;-0.60;99.90;;;;;;4920227;29;20203;-69
2022/03/01 06:04:49;;;;;;;11.57;8.10;;;-0.50;99.90;;;;;;4915339;29;20207;-70
2022/03/01 06:07:15;;;;;;;12.43;7.88;;;-0.50;99.90;;;;;;4905008;29;20219;-69
2022/03/01 06:09:44;;;;;;;14.30;9.10;;;-0.50;99.90;;;;;;4899330;29;20239;-69
2022/03/01 06:12:10;;;;;;;12.35;8.20;;;-0.60;99.90;;;;;;4903314;29;20202;-69
2022/03/01 06:14:37;;;;;;;18.55;7.35;;;-0.50;99.90;;;;;;4918389;29;20210;-69
2022/03/01 06:17:04;;;;;;;13.20;8.20;;;-0.60;99.90;;;;;;4915921;29;20587;-69
2022/03/01 06:19:31;;;;;;;12.43;8.40;;;-0.60;99.90;;;;;;4915104;29;20631;-70
2022/03/01 06:21:58;;;;;;;12.75;8.50;;;-0.60;99.90;;;;;;4915591;29;20221;-69
2022/03/01 06:24:25;;;;;;;14.98;9.25;;;-0.60;99.90;;;;;;4910068;29;20229;-69
2022/03/01 06:26:53;;;;;;;14.75;9.15;;;-0.60;99.90;;;;;;4912422;29;20211;-70
2022/03/01 06:29:20;;;;;;;13.90;7.97;;;-0.60;99.90;;;;;;4906229;29;20303;-70
2022/03/01 06:31:47;;;;;;;12.20;8.45;;;-0.60;99.90;;;;;;4929100;29;20273;-69
2022/03/01 06:34:13;;;;;;;11.40;7.60;;;-0.60;99.90;;;;;;4913932;29;20217;-69
2022/03/01 06:36:40;;;;;;;12.15;8.80;;;-0.60;99.90;;;;;;4908294;29;20210;-70
2022/03/01 06:39:07;;;;;;;20.85;11.30;;;-0.50;99.90;;;;;;4924996;29;20213;-70
2022/03/01 06:41:34;;;;;;;22.92;8.95;;;-0.50;99.90;;;;;;4934537;29;20221;-71
2022/03/01 06:44:02;;;;;;;16.17;9.13;;;-0.50;99.90;;;;;;4921443;29;20211;-70
2022/03/01 06:46:28;;;;;;;12.73;8.27;;;-0.50;99.90;;;;;;4901061;29;20269;-70
2022/03/01 06:48:55;;;;;;;13.65;8.95;;;-0.50;99.90;;;;;;4919392;29;20206;-70
2022/03/01 06:51:22;;;;;;;12.85;9.55;;;-0.50;99.90;;;;;;4896465;29;20211;-70
2022/03/01 06:53:48;;;;;;;23.77;13.10;;;-0.40;99.90;;;;;;4901133;29;20206;-70
2022/03/01 06:56:15;;;;;;;11.68;8.68;;;-0.40;99.90;;;;;;4914182;29;20210;-70
2022/03/01 06:58:42;;;;;;;17.30;12.75;;;-0.30;99.90;;;;;;4915243;29;20996;-70
2022/03/01 07:01:10;;;;;;;25.70;13.05;;;-0.30;99.90;;;;;;4913076;29;20230;-69
2022/03/01 07:03:39;;;;;;;28.50;14.75;;;-0.20;99.90;;;;;;4910014;29;20211;-71
2022/03/01 07:06:06;;;;;;;27.10;15.02;;;-0.20;99.90;;;;;;4914651;29;20211;-70
2022/03/01 07:08:33;;;;;;;16.77;10.18;;;-0.20;99.90;;;;;;4908162;29;20250;-70
2022/03/01 07:10:59;;;;;;;10.85;8.35;;;-0.10;99.90;;;;;;4912589;29;20257;-69
2022/03/01 07:13:26;;;;;;;10.25;7.05;;;-0.10;99.90;;;;;;4920502;29;20207;-69
2022/03/01 07:15:53;;;;;;;13.57;8.52;;;-0.10;99.90;;;;;;4918685;29;20209;-70
2022/03/01 07:18:21;;;;;;;28.50;15.73;;;0.00;99.90;;;;;;4919046;29;20286;-70
2022/03/01 07:20:48;;;;;;;15.80;10.85;;;0.10;99.90;;;;;;4913642;29;20592;-69
2022/03/01 07:23:15;;;;;;;13.10;10.95;;;0.10;99.90;;;;;;4897419;29;20211;-70
2022/03/01 07:25:42;;;;;;;22.55;10.95;;;0.20;99.90;;;;;;4910683;29;20302;-70
2022/03/01 07:28:09;;;;;;;19.85;10.63;;;0.30;99.90;;;;;;4900621;29;20204;-69
2022/03/01 07:30:35;;;;;;;16.10;10.55;;;0.30;99.90;;;;;;4907811;29;20309;-69
2022/03/01 07:33:02;;;;;;;10.02;6.38;;;0.30;99.90;;;;;;4914810;29;20244;-69
2022/03/01 07:35:31;;;;;;;17.40;9.88;;;0.40;99.90;;;;;;4914637;29;20226;-70
2022/03/01 07:37:58;;;;;;;16.42;11.35;;;0.50;99.90;;;;;;4913053;29;20625;-71
2022/03/01 07:40:26;;;;;;;14.15;10.20;;;0.60;99.90;;;;;;4895769;29;20231;-69
2022/03/01 07:42:52;;;;;;;19.23;10.57;;;0.60;99.90;;;;;;4901072;29;20211;-70
2022/03/01 07:45:20;;;;;;;16.25;9.20;;;0.70;99.90;;;;;;4896149;29;20587;-71
2022/03/01 07:47:48;;;;;;;20.38;10.50;;;0.70;99.90;;;;;;4909213;29;20210;-70
2022/03/01 07:50:15;;;;;;;13.50;9.57;;;0.80;99.90;;;;;;4914175;29;20234;-70
2022/03/01 07:52:43;;;;;;;17.48;11.75;;;0.80;99.90;;;;;;4908968;29;20676;-70
2022/03/01 07:55:10;;;;;;;12.57;9.65;;;0.90;99.90;;;;;;4894790;29;20255;-70
2022/03/01 07:57:37;;;;;;;15.60;11.05;;;1.00;99.90;;;;;;4898470;29;20231;-70
2022/03/01 08:00:05;;;;;;;15.02;10.75;;;1.00;99.90;;;;;;4914033;29;20262;-71
2022/03/01 08:02:32;;;;;;;21.10;11.23;;;1.10;99.90;;;;;;4913256;29;20270;-70
2022/03/01 08:05:01;;;;;;;18.08;10.65;;;1.20;99.90;;;;;;4918751;29;20214;-70
2022/03/01 08:07:28;;;;;;;19.33;11.88;;;1.30;99.90;;;;;;4913560;29;20207;-70
2022/03/01 08:09:56;;;;;;;14.55;10.63;;;1.40;99.90;;;;;;4907583;29;20255;-70
2022/03/01 08:12:23;;;;;;;17.45;10.63;;;1.40;99.90;;;;;;4899631;29;20258;-70
2022/03/01 08:14:49;;;;;;;18.48;11.88;;;1.50;99.90;;;;;;4895729;29;20656;-70
2022/03/01 08:17:17;;;;;;;16.23;10.50;;;1.60;99.90;;;;;;4895893;29;20570;-69
2022/03/01 08:19:43;;;;;;;15.18;10.82;;;1.70;99.90;;;;;;4907489;29;20226;-70
2022/03/01 08:22:10;;;;;;;16.80;10.85;;;1.80;99.90;;;;;;4914273;29;20211;-69
2022/03/01 08:24:37;;;;;;;14.45;10.45;;;1.90;99.90;;;;;;4908008;29;20315;-69
2022/03/01 08:27:05;;;;;;;16.35;8.95;;;1.90;99.90;;;;;;4909646;29;20208;-69
2022/03/01 08:29:32;;;;;;;16.58;10.20;;;2.00;99.90;;;;;;4913022;29;20242;-69
2022/03/01 08:31:58;;;;;;;16.58;10.82;;;2.10;99.90;;;;;;4914920;29;20214;-70
2022/03/01 08:34:25;;;;;;;20.02;10.93;;;2.10;99.90;;;;;;4897778;29;20215;-69
2022/03/01 08:36:52;;;;;;;19.05;10.88;;;2.10;99.90;;;;;;4895538;29;20216;-69
2022/03/01 08:39:19;;;;;;;12.05;9.52;;;2.00;99.90;;;;;;4894697;29;20242;-69
2022/03/01 08:41:45;;;;;;;21.13;11.85;;;2.00;99.90;;;;;;4895799;29;20211;-69
2022/03/01 08:44:14;;;;;;;16.70;11.98;;;2.00;99.90;;;;;;4908153;29;20206;-70
2022/03/01 08:46:41;;;;;;;19.63;10.75;;;1.90;99.90;;;;;;4907079;29;20266;-70
2022/03/01 08:49:08;;;;;;;19.65;11.48;;;1.90;99.90;;;;;;4916976;29;20214;-69
2022/03/01 08:51:34;;;;;;;17.85;9.80;;;2.00;99.90;;;;;;4915603;29;20210;-69
2022/03/01 08:54:02;;;;;;;15.00;11.52;;;2.10;99.90;;;;;;4913903;29;20217;-70
2022/03/01 08:56:28;;;;;;;16.27;11.38;;;2.20;99.90;;;;;;4907149;29;20203;-69
2022/03/01 08:58:55;;;;;;;17.63;10.82;;;2.30;99.90;;;;;;4916130;29;20226;-70
2022/03/01 09:01:23;;;;;;;18.23;11.55;;;2.50;99.90;;;;;;4917407;29;20297;-69
2022/03/01 09:03:50;;;;;;;19.13;11.25;;;2.50;99.90;;;;;;4918631;29;20209;-69
2022/03/01 09:06:17;;;;;;;23.65;14.95;;;2.60;99.90;;;;;;4899965;29;20215;-69
2022/03/01 09:08:43;;;;;;;12.43;10.02;;;2.80;99.90;;;;;;4904312;29;20210;-70
2022/03/01 09:11:11;;;;;;;13.90;10.30;;;2.90;99.90;;;;;;4914644;29;20711;-69
2022/03/01 09:13:38;;;;;;;12.23;8.23;;;3.10;99.90;;;;;;4915981;29;20206;-70
2022/03/01 09:16:05;;;;;;;12.70;8.43;;;3.20;99.90;;;;;;4912309;29;20211;-69
2022/03/01 09:18:34;;;;;;;13.88;8.95;;;3.30;99.90;;;;;;4916173;29;20223;-70
2022/03/01 09:21:01;;;;;;;14.02;11.02;;;3.40;99.90;;;;;;4915473;29;20289;-70
2022/03/01 09:23:28;;;;;;;16.80;11.32;;;3.60;99.90;;;;;;4907557;29;20222;-70
2022/03/01 09:25:54;;;;;;;20.70;12.07;;;3.70;99.90;;;;;;4900920;29;20210;-70
2022/03/01 09:28:21;;;;;;;22.20;12.23;;;3.80;99.90;;;;;;4912081;29;20580;-70
2022/03/01 09:30:48;;;;;;;19.77;11.40;;;3.80;99.90;;;;;;4908478;29;20241;-69
2022/03/01 09:33:14;;;;;;;23.27;14.80;;;3.70;99.90;;;;;;4909722;29;20199;-70
2022/03/01 09:35:43;;;;;;;17.08;11.25;;;3.80;99.90;;;;;;4906245;29;20211;-70
2022/03/01 09:38:10;;;;;;;19.20;11.98;;;3.90;99.90;;;;;;4915184;29;20569;-70
2022/03/01 09:40:37;;;;;;;11.93;8.77;;;3.80;99.90;;;;;;4903013;29;20261;-70
2022/03/01 09:43:04;;;;;;;16.73;8.73;;;3.80;99.90;;;;;;4897745;29;20214;-69
2022/03/01 09:45:31;;;;;;;12.93;8.60;;;3.80;99.90;;;;;;4897827;29;20247;-69
2022/03/01 09:47:58;;;;;;;21.33;10.43;;;3.70;99.90;;;;;;4901959;29;20213;-69
2022/03/01 09:50:28;;;;;;;13.18;10.40;;;3.70;99.90;;;;;;4910177;29;20645;-69
2022/03/01 09:52:58;;;;;;;19.80;10.98;;;3.70;99.90;;;;;;4903262;29;20634;-69
2022/03/01 09:55:25;;;;;;;13.73;8.00;;;3.70;99.90;;;;;;4909793;29;20211;-69
2022/03/01 09:57:52;;;;;;;18.77;10.35;;;3.90;99.90;;;;;;4909404;29;20273;-69
2022/03/01 10:00:19;;;;;;;16.10;11.23;;;4.00;99.90;;;;;;4914329;29;20230;-69
2022/03/01 10:02:46;;;;;;;16.85;9.98;;;4.10;99.90;;;;;;4910964;29;20218;-69
2022/03/01 10:05:15;;;;;;;15.23;9.25;;;4.20;99.90;;;;;;4903092;29;20560;-69
2022/03/01 10:07:44;;;;;;;10.63;8.02;;;4.20;99.90;;;;;;4905963;29;20219;-69
2022/03/01 10:10:16;;;;;;;18.80;10.80;;;4.20;99.90;;;;;;4906712;29;20771;-70
2022/03/01 10:12:45;;;;;;;11.90;9.38;;;4.30;99.90;;;;;;4901973;29;20202;-69
2022/03/01 10:15:13;;;;;;;15.10;9.30;;;4.30;99.90;;;;;;4917907;29;20259;-69
2022/03/01 10:17:41;;;;;;;11.77;8.90;;;4.30;99.90;;;;;;4918859;29;20679;-69
2022/03/01 10:20:11;;;;;;;16.48;11.85;;;4.40;99.90;;;;;;4909300;29;20695;-69
2022/03/01 10:22:39;;;;;;;15.68;10.68;;;4.50;99.90;;;;;;4919587;29;20239;-69
2022/03/01 10:25:08;;;;;;;13.80;10.43;;;4.50;99.90;;;;;;4899036;29;20295;-70
2022/03/01 10:27:36;;;;;;;14.07;10.40;;;4.60;99.90;;;;;;4909384;29;20588;-69
2022/03/01 10:30:05;;;;;;;11.35;7.95;;;4.70;99.90;;;;;;4914686;29;20235;-69
2022/03/01 10:32:31;;;;;;;13.77;9.65;;;4.70;99.90;;;;;;4916214;29;20225;-70
2022/03/01 10:35:04;;;;;;;12.57;9.15;;;4.70;99.90;;;;;;4909244;29;20210;-70
2022/03/01 10:37:32;;;;;;;15.30;10.20;;;4.80;99.90;;;;;;4916002;29;20286;-70
2022/03/01 10:40:13;;;;;;;11.02;8.18;;;4.80;99.90;;;;;;4904601;29;20239;-69
2022/03/01 10:42:42;;;;;;;12.07;8.80;;;4.90;99.90;;;;;;4897578;29;20207;-69
2022/03/01 10:45:10;;;;;;;13.50;10.70;;;5.00;99.90;;;;;;4918617;29;20257;-69
2022/03/01 10:47:38;;;;;;;11.90;9.50;;;5.00;99.90;;;;;;4911868;29;20217;-70
2022/03/01 10:50:07;;;;;;;14.00;8.95;;;5.10;99.90;;;;;;4912054;29;20274;-69
2022/03/01 10:52:35;;;;;;;9.52;8.40;;;5.20;99.90;;;;;;4910723;29;20213;-70
2022/03/01 10:55:03;;;;;;;15.00;9.80;;;5.40;99.90;;;;;;4905989;29;20656;-70
2022/03/01 10:57:30;;;;;;;11.88;8.82;;;5.50;99.90;;;;;;4911424;29;20210;-70
2022/03/01 10:59:58;;;;;;;13.57;9.65;;;5.70;99.90;;;;;;4910844;29;20227;-70
2022/03/01 11:02:25;;;;;;;14.00;9.70;;;5.80;99.90;;;;;;4915281;29;20215;-69
2022/03/01 11:04:52;;;;;;;14.20;10.68;;;5.80;99.90;;;;;;4906667;29;20577;-69
2022/03/01 11:07:21;;;;;;;12.85;9.20;;;5.80;99.90;;;;;;4914674;29;20306;-69
2022/03/01 11:09:48;;;;;;;15.30;9.13;;;5.80;99.90;;;;;;4901194;29;20254;-69
2022/03/01 11:12:18;;;;;;;12.48;7.90;;;5.90;99.90;;;;;;4909794;29;20203;-70
2022/03/01 11:15:01;;;;;;;14.10;10.50;;;6.00;99.90;;;;;;4913986;29;20198;-70
2022/03/01 11:17:41;;;;;;;13.20;9.57;;;6.20;99.90;;;;;;4907150;29;20305;-70
2022/03/01 11:20:11;;;;;;;23.27;17.58;;;6.20;99.90;;;;;;4910983;29;20234;-70
2022/03/01 11:22:44;;;;;;;18.00;10.05;;;6.20;99.90;;;;;;4918047;29;20205;-70
2022/03/01 11:25:16;;;;;;;13.57;9.90;;;6.30;99.90;;;;;;4895561;29;20215;-70
2022/03/01 11:27:45;;;;;;;21.20;9.52;;;6.40;99.90;;;;;;4913226;29;20270;-69
2022/03/01 11:30:13;;;;;;;13.68;12.23;;;6.40;99.90;;;;;;4910555;29;20231;-71
2022/03/01 11:32:44;;;;;;;15.13;11.45;;;6.50;99.90;;;;;;4914780;29;20214;-70
2022/03/01 11:35:19;;;;;;;12.40;8.55;;;6.50;99.90;;;;;;4905267;29;20219;-70
2022/03/01 11:37:46;;;;;;;12.73;9.27;;;6.60;99.90;;;;;;4905267;29;20317;-70
2022/03/01 11:40:22;;;;;;;10.40;9.30;;;6.60;99.90;;;;;;4906559;29;20238;-70
2022/03/01 11:42:50;;;;;;;14.15;8.40;;;6.60;99.90;;;;;;4918480;29;20301;-70
2022/03/01 11:45:17;;;;;;;12.90;9.73;;;6.60;99.90;;;;;;4907039;29;20568;-69
2022/03/01 11:47:45;;;;;;;15.98;11.25;;;6.60;99.90;;;;;;4908049;29;20230;-69
2022/03/01 11:50:14;;;;;;;10.77;9.32;;;6.60;99.90;;;;;;4906775;29;20231;-70
2022/03/01 11:52:51;;;;;;;11.05;9.68;;;6.60;99.90;;;;;;4908201;29;20199;-70
2022/03/01 11:55:20;;;;;;;13.55;8.52;;;6.70;99.90;;;;;;4910830;29;20238;-70
2022/03/01 11:57:47;;;;;;;13.38;9.27;;;6.70;99.90;;;;;;4905953;29;20305;-70
2022/03/01 12:00:16;;;;;;;15.63;11.68;;;6.80;99.90;;;;;;4907700;29;20234;-71
2022/03/01 12:02:47;;;;;;;17.58;9.85;;;6.90;99.90;;;;;;4910912;29;20210;-70
2022/03/01 12:05:23;;;;;;;10.20;9.10;;;7.00;99.90;;;;;;4912056;29;20207;-71
2022/03/01 12:07:51;;;;;;;9.88;7.57;;;7.20;99.90;;;;;;4909127;29;20242;-70
2022/03/01 12:10:22;;;;;;;11.63;7.90;;;7.10;99.90;;;;;;4910700;29;20227;-70
2022/03/01 12:12:53;;;;;;;17.33;11.27;;;7.10;99.90;;;;;;4916054;29;20211;-70
2022/03/01 12:15:28;;;;;;;16.35;10.23;;;7.00;99.90;;;;;;4913277;29;20213;-70
2022/03/01 12:17:56;;;;;;;14.90;11.75;;;7.00;99.90;;;;;;4904038;29;20468;-70
2022/03/01 12:20:24;;;;;;;15.02;12.10;;;7.00;99.90;;;;;;4898534;29;20246;-70
2022/03/01 12:22:53;;;;;;;13.93;9.52;;;7.10;99.90;;;;;;4898951;29;20211;-70
2022/03/01 12:25:19;;;;;;;15.20;10.27;;;7.10;99.90;;;;;;4898325;29;20219;-70
2022/03/01 12:27:48;;;;;;;11.05;8.20;;;7.20;99.90;;;;;;4899114;29;20226;-70
2022/03/01 12:30:18;;;;;;;12.27;9.48;;;7.20;99.90;;;;;;4906273;29;20297;-70
2022/03/01 12:32:49;;;;;;;14.48;10.02;;;7.20;99.90;;;;;;4915467;29;20207;-70
2022/03/01 12:35:17;;;;;;;10.57;8.63;;;7.30;99.90;;;;;;4898875;29;20267;-70
2022/03/01 12:37:44;;;;;;;13.77;8.90;;;7.40;99.90;;;;;;4898822;29;20211;-70
2022/03/01 12:40:12;;;;;;;11.45;8.73;;;7.40;99.90;;;;;;4897634;29;20239;-70
2022/03/01 12:42:39;;;;;;;10.00;8.15;;;7.40;99.90;;;;;;4899017;29;20237;-70
2022/03/01 12:45:06;;;;;;;14.48;8.20;;;7.60;99.90;;;;;;4909810;29;20210;-70
2022/03/01 12:47:33;;;;;;;12.65;9.75;;;7.60;99.90;;;;;;4917132;29;20546;-70
2022/03/01 12:50:00;;;;;;;11.40;7.88;;;7.60;99.90;;;;;;4917105;29;20322;-70
2022/03/01 12:52:28;;;;;;;10.10;8.52;;;7.70;99.90;;;;;;4917782;29;20290;-70
2022/03/01 12:54:55;;;;;;;13.20;10.00;;;7.80;99.90;;;;;;4916370;29;20865;-70
2022/03/01 12:57:21;;;;;;;12.93;9.25;;;7.80;99.90;;;;;;4917343;29;20565;-70
2022/03/01 12:59:48;;;;;;;13.57;8.40;;;7.80;99.90;;;;;;4916973;29;20230;-70
2022/03/01 13:02:16;;;;;;;12.27;8.32;;;7.90;99.90;;;;;;4916673;29;20727;-70
2022/03/01 13:04:49;;;;;;;10.30;7.90;;;7.90;99.90;;;;;;4917202;29;20207;-70
2022/03/01 13:07:16;;;;;;;14.10;9.30;;;8.00;99.90;;;;;;4917617;29;20608;-70
2022/03/01 13:09:44;;;;;;;25.13;18.85;;;8.00;99.90;;;;;;4916131;29;20234;-70
2022/03/01 13:12:11;;;;;;;23.52;15.18;;;8.10;99.90;;;;;;4916976;29;20219;-70
2022/03/01 13:14:38;;;;;;;17.30;12.00;;;8.10;99.90;;;;;;4917217;29;20327;-70
2022/03/01 13:17:06;;;;;;;19.48;14.38;;;8.10;99.90;;;;;;4911777;29;20206;-70
2022/03/01 13:19:35;;;;;;;13.55;12.10;;;8.20;99.90;;;;;;4916406;29;20231;-70
2022/03/01 13:22:04;;;;;;;9.75;7.55;;;8.30;99.90;;;;;;4917131;29;20214;-70
2022/03/01 13:24:33;;;;;;;26.73;19.35;;;8.20;99.90;;;;;;4915756;29;20325;-70
2022/03/01 13:27:03;;;;;;;12.48;9.85;;;8.20;99.90;;;;;;4916708;29;20210;-70
2022/03/01 13:29:33;;;;;;;16.42;11.05;;;8.20;99.90;;;;;;4915362;29;20727;-71
2022/03/01 13:32:06;;;;;;;13.65;9.85;;;8.10;99.90;;;;;;4916943;29;20215;-70
2022/03/01 13:34:34;;;;;;;13.10;9.98;;;8.20;99.90;;;;;;4912250;29;20214;-70
2022/03/01 13:37:01;;;;;;;12.70;9.95;;;8.20;99.90;;;;;;4916701;29;20234;-70
2022/03/01 13:39:28;;;;;;;12.55;9.85;;;8.10;99.90;;;;;;4915627;29;20301;-70
2022/03/01 13:41:58;;;;;;;10.32;8.48;;;8.20;99.90;;;;;;4916304;29;20218;-70
2022/03/01 13:44:30;;;;;;;13.30;10.10;;;8.30;99.90;;;;;;4916693;29;20222;-70
2022/03/01 13:47:00;;;;;;;13.60;9.23;;;8.20;99.90;;;;;;4916449;29;20222;-70
2022/03/01 13:49:29;;;;;;;10.93;8.65;;;8.20;99.90;;;;;;4916373;29;20238;-70
2022/03/01 13:52:12;;;;;;;13.43;8.15;;;8.20;99.90;;;;;;4900636;29;20246;-69
2022/03/01 13:54:41;;;;;;;14.27;9.40;;;8.20;99.90;;;;;;4896796;29;20333;-69
2022/03/01 13:57:09;;;;;;;10.98;8.77;;;8.20;99.90;;;;;;4900737;29;20211;-69
2022/03/01 13:59:37;;;;;;;11.60;8.80;;;8.20;99.90;;;;;;4897038;29;20295;-69
2022/03/01 14:02:04;;;;;;;13.60;8.10;;;8.10;99.90;;;;;;4911881;29;20229;-70
2022/03/01 14:04:32;;;;;;;16.70;11.32;;;8.10;99.90;;;;;;4918584;29;20698;-69
2022/03/01 14:06:58;;;;;;;10.55;8.25;;;8.10;99.90;;;;;;4904826;29;20207;-70
2022/03/01 14:09:25;;;;;;;9.35;7.32;;;8.20;99.90;;;;;;4911998;29;20388;-70
2022/03/01 14:11:57;;;;;;;13.05;9.30;;;8.20;99.90;;;;;;4907639;29;20215;-70
2022/03/01 14:14:24;;;;;;;13.20;8.70;;;8.20;99.90;;;;;;4911014;29;20215;-70
2022/03/01 14:16:52;;;;;;;9.95;8.65;;;8.20;99.90;;;;;;4925941;29;20218;-70
2022/03/01 14:19:20;;;;;;;12.70;8.65;;;8.30;99.90;;;;;;4916103;29;20582;-70
2022/03/01 14:21:47;;;;;;;12.23;7.55;;;8.30;99.90;;;;;;4917970;29;20297;-69
2022/03/01 14:24:16;;;;;;;11.77;8.77;;;8.30;99.90;;;;;;4908171;29;20218;-69
2022/03/01 14:26:43;;;;;;;13.18;8.70;;;8.30;99.90;;;;;;4918038;29;20636;-70
2022/03/01 14:29:12;;;;;;;12.82;9.23;;;8.30;99.90;;;;;;4911173;29;20682;-69
2022/03/01 14:31:41;;;;;;;11.77;9.05;;;8.30;99.90;;;;;;4902933;29;20214;-69
2022/03/01 14:34:09;;;;;;;11.48;9.05;;;8.20;99.90;;;;;;4908142;29;21874;-71
2022/03/01 14:36:36;;;;;;;11.68;8.93;;;8.30;99.90;;;;;;4911544;29;20206;-69
2022/03/01 14:39:04;;;;;;;14.73;8.45;;;8.30;99.90;;;;;;4901927;29;20214;-69
2022/03/01 14:41:31;;;;;;;12.80;8.82;;;8.30;99.90;;;;;;4913954;29;20214;-69
2022/03/01 14:43:58;;;;;;;11.80;8.70;;;8.20;99.90;;;;;;4915968;29;20911;-75
2022/03/01 14:46:26;;;;;;;10.77;7.45;;;8.20;99.90;;;;;;4917482;29;20248;-70
2022/03/01 14:48:52;;;;;;;11.80;8.73;;;8.20;99.90;;;;;;4903458;29;20266;-70
2022/03/01 14:51:21;;;;;;;13.02;8.93;;;8.10;99.90;;;;;;4911045;29;20298;-70
2022/03/01 14:53:48;;;;;;;11.85;8.40;;;8.10;99.90;;;;;;4914043;29;20210;-70
2022/03/01 14:56:14;;;;;;;10.80;9.10;;;8.10;99.90;;;;;;4902224;29;20574;-70
2022/03/01 14:58:42;;;;;;;9.43;8.50;;;8.10;99.90;;;;;;4908187;29;20238;-70
2022/03/01 15:01:08;;;;;;;15.27;8.88;;;8.00;99.90;;;;;;4914953;29;20234;-70
2022/03/01 15:03:35;;;;;;;14.13;11.02;;;8.00;99.90;;;;;;4904692;29;20203;-70
2022/03/01 15:06:02;;;;;;;13.82;9.20;;;7.90;99.90;;;;;;4907072;29;20210;-70
2022/03/01 15:08:30;;;;;;;14.07;9.73;;;7.90;99.90;;;;;;4909187;29;20213;-70
2022/03/01 15:10:58;;;;;;;9.85;8.40;;;7.90;99.90;;;;;;4906380;29;20281;-69
2022/03/01 15:13:25;;;;;;;10.95;8.73;;;7.90;99.90;;;;;;4912221;29;20266;-70
2022/03/01 15:15:52;;;;;;;9.82;8.75;;;8.00;99.90;;;;;;4912318;29;20223;-70
2022/03/01 15:18:22;;;;;;;17.63;12.07;;;8.00;99.90;;;;;;4920373;29;20209;-70
2022/03/01 15:20:49;;;;;;;12.80;9.85;;;8.00;99.90;;;;;;4907853;29;20318;-70
2022/03/01 15:23:18;;;;;;;13.07;9.98;;;7.90;99.90;;;;;;4896307;29;20211;-70
2022/03/01 15:25:46;;;;;;;14.82;9.50;;;7.90;99.90;;;;;;4906824;29;20211;-70
2022/03/01 15:28:13;;;;;;;11.30;8.48;;;8.00;99.90;;;;;;4927696;29;20206;-70
2022/03/01 15:30:40;;;;;;;12.88;8.45;;;8.00;99.90;;;;;;4911444;29;20242;-70
2022/03/01 15:33:06;;;;;;;13.50;8.13;;;8.00;99.90;;;;;;4915846;29;20203;-70
2022/03/01 15:35:33;;;;;;;10.13;7.75;;;8.00;99.90;;;;;;4901898;29;20290;-70
2022/03/01 15:38:00;;;;;;;13.13;8.50;;;8.00;99.90;;;;;;4896700;29;20673;-70
2022/03/01 15:40:27;;;;;;;9.95;7.93;;;8.10;99.90;;;;;;4910325;29;20608;-69
2022/03/01 15:42:55;;;;;;;13.43;10.75;;;8.10;99.90;;;;;;4914373;29;20209;-70
2022/03/01 15:45:22;;;;;;;12.40;8.57;;;8.20;99.90;;;;;;4919248;29;20554;-70
2022/03/01 15:47:48;;;;;;;11.52;7.93;;;8.20;99.90;;;;;;4909556;29;20217;-69
2022/03/01 15:50:16;;;;;;;13.07;9.75;;;8.20;99.90;;;;;;4910364;29;20226;-70
2022/03/01 15:52:43;;;;;;;13.65;8.82;;;8.20;99.90;;;;;;4902025;29;20672;-70
2022/03/01 15:55:11;;;;;;;11.88;8.55;;;8.10;99.90;;;;;;4913552;29;20210;-69
2022/03/01 15:57:38;;;;;;;9.75;7.57;;;8.10;99.90;;;;;;4902936;29;20206;-70
2022/03/01 16:00:09;;;;;;;11.30;8.20;;;8.00;99.90;;;;;;4895701;29;20325;-69
2022/03/01 16:02:35;;;;;;;10.60;8.32;;;8.00;99.90;;;;;;4913076;29;20234;-72
2022/03/01 16:05:03;;;;;;;13.13;8.50;;;7.90;99.90;;;;;;4903410;29;20219;-69
2022/03/01 16:07:30;;;;;;;13.63;8.40;;;7.80;99.90;;;;;;4905041;29;20207;-70
2022/03/01 16:09:57;;;;;;;13.23;9.35;;;7.80;99.90;;;;;;4909884;29;20252;-70
2022/03/01 16:12:25;;;;;;;11.82;8.80;;;7.70;99.90;;;;;;4902707;29;20251;-69
2022/03/01 16:14:52;;;;;;;12.15;8.32;;;7.60;99.90;;;;;;4910436;29;20570;-70
2022/03/01 16:17:21;;;;;;;12.75;9.30;;;7.60;99.90;;;;;;4906799;29;20217;-71
2022/03/01 16:19:48;;;;;;;14.05;9.15;;;7.50;99.90;;;;;;4923951;29;20230;-70
2022/03/01 16:22:15;;;;;;;12.05;9.27;;;7.50;99.90;;;;;;4903166;29;20672;-69
2022/03/01 16:24:42;;;;;;;12.40;9.00;;;7.40;99.90;;;;;;4904827;29;20277;-69
2022/03/01 16:27:09;;;;;;;17.00;10.00;;;7.30;99.90;;;;;;4910019;29;20948;-68
2022/03/01 16:29:36;;;;;;;11.07;8.98;;;7.30;99.90;;;;;;4913469;29;20234;-69
2022/03/01 16:32:04;;;;;;;16.10;9.60;;;7.30;99.90;;;;;;4904164;29;20207;-69
2022/03/01 16:34:32;;;;;;;47.67;21.83;;;7.20;99.90;;;;;;4903950;29;20222;-70
2022/03/01 16:36:59;;;;;;;23.15;15.38;;;7.20;99.90;;;;;;4922125;29;20713;-70
2022/03/01 16:39:28;;;;;;;13.45;9.35;;;7.20;99.90;;;;;;4913627;29;20245;-69
2022/03/01 16:41:56;;;;;;;19.88;12.55;;;7.10;99.90;;;;;;4900272;29;20230;-69
2022/03/01 16:44:23;;;;;;;17.35;10.18;;;7.10;99.90;;;;;;4914302;29;20203;-69
2022/03/01 16:46:50;;;;;;;15.55;10.13;;;7.00;99.90;;;;;;4917527;29;20213;-69
2022/03/01 16:49:17;;;;;;;13.63;8.90;;;7.00;99.90;;;;;;4911763;29;20214;-70
2022/03/01 16:51:46;;;;;;;14.85;9.50;;;6.90;99.90;;;;;;4912957;29;20230;-69
2022/03/01 16:54:12;;;;;;;11.27;10.05;;;6.90;99.90;;;;;;4917740;29;20233;-69
2022/03/01 16:56:40;;;;;;;13.80;9.93;;;6.80;99.90;;;;;;4907814;29;20215;-70
2022/03/01 16:59:07;;;;;;;15.95;9.68;;;6.70;99.90;;;;;;4906660;29;20672;-69
2022/03/01 17:01:34;;;;;;;12.38;8.93;;;6.60;99.90;;;;;;4909247;29;20223;-69
2022/03/01 17:04:01;;;;;;;15.30;8.10;;;6.60;99.90;;;;;;4900983;29;20271;-69
2022/03/01 17:06:29;;;;;;;12.93;8.20;;;6.60;99.90;;;;;;4899729;29;20218;-70
2022/03/01 17:09:00;;;;;;;11.30;8.90;;;6.50;99.90;;;;;;4899460;29;20207;-69
2022/03/01 17:11:26;;;;;;;14.50;8.55;;;6.50;99.90;;;;;;4897478;29;20203;-69
2022/03/01 17:13:56;;;;;;;16.48;9.88;;;6.40;99.90;;;;;;4899006;29;20217;-69
2022/03/01 17:16:23;;;;;;;15.80;14.05;;;6.40;99.90;;;;;;4911461;29;20241;-69
2022/03/01 17:18:54;;;;;;;14.13;9.40;;;6.30;99.90;;;;;;4913899;29;20206;-70
2022/03/01 17:21:21;;;;;;;11.80;9.00;;;6.30;99.90;;;;;;4907820;29;20239;-70
2022/03/01 17:23:53;;;;;;;13.27;7.80;;;6.20;99.90;;;;;;4912397;29;20219;-70
2022/03/01 17:26:23;;;;;;;11.30;9.05;;;6.20;99.90;;;;;;4924582;29;20246;-70
2022/03/01 17:28:52;;;;;;;11.43;8.57;;;6.20;99.90;;;;;;4936994;29;20296;-70
2022/03/01 17:31:26;;;;;;;13.02;8.98;;;6.20;99.90;;;;;;4931773;29;21109;-70
2022/03/01 17:33:53;;;;;;;13.20;9.68;;;6.10;99.90;;;;;;4919132;29;20288;-70
2022/03/01 17:36:28;;;;;;;12.32;8.82;;;6.10;99.90;;;;;;4911921;29;20758;-69
2022/03/01 17:39:02;;;;;;;13.38;10.25;;;6.10;99.90;;;;;;4916929;29;20204;-70
2022/03/01 17:41:30;;;;;;;13.82;10.02;;;6.10;99.90;;;;;;4898185;29;20278;-70
2022/03/01 17:43:59;;;;;;;11.43;9.43;;;6.10;99.90;;;;;;4927048;29;20222;-70
2022/03/01 17:46:28;;;;;;;16.45;10.80;;;6.10;99.90;;;;;;4899358;29;20239;-70